Station VTBT2 - 8775222 - Viola Turning Basin, TX Image indicating link to RSS feed of recent meteorological observations for station VTBT2


Conditions at VTBT2 as of
(5:48 pm CDT)
2248 GMT on 08/31/2026:
     

Click on the graph icon in the table below to see a time series plot of the last five days of that observation.

5-day plot - Wind Direction Wind Direction (WDIR):ESE ( 110 deg true )
5-day plot - Wind Speed Wind Speed (WSPD): 15.0 kts
5-day plot - Wind Gust Wind Gust (GST): 20.0 kts
5-day plot - Atmospheric Pressure Atmospheric Pressure (PRES):29.87 in
5-day plot - Air Temperature Air Temperature (ATMP): 90.1 °F
5-day plot - Water Temperature Water Temperature (WTMP): 88.9 °F
5-day plot - Dew Point Dew Point (DEWP): 73.8 °F
5-day plot - Visibility Visibility (VIS): 5.9 nmi
5-day plot - Heat Index Heat Index (HEAT): 99.3 °F
5-day plot - Wind Speed at 10 Meters Wind Speed at 10 meters (WSPD10M): 15.5 kts
5-day plot - Wind Speed at 20 Meters Wind Speed at 20 meters (WSPD20M): 15.5 kts
5-day plot -  Wind Speed, Wind Gust and Atmospheric Pressure Combined plot of Wind Speed, Gust, and Air Pressure
NOS Water Level Observation Network Water Level
Previous observations
TIME
(CDT)
5-day plot - Wind Direction
WDIR
 
5-day plot - Wind Speed
WSPD
kts
5-day plot - Wind Gust
GST
kts
5-day plot - Wave Height
WVHT
ft
5-day plot - Dominant Wave Period
DPD
sec
5-day plot - Average Wave Period
APD
sec
5-day plot - Mean Wave Direction
MWD
 
5-day plot - Atmospheric Pressure
PRES
in
5-day plot - Pressure Tendency
PTDY
in
5-day plot - Air Temperature
ATMP
°F
5-day plot - Water Temperature
WTMP
°F
5-day plot - Dew Point
DEWP
°F
5-day plot - Salinity
SAL
psu
5-day plot - Visibility
VIS
nmi
5-day plot - Tide (above MLLW)
TIDE
ft
2026-08-31 05:42 pm E 13.0 19.0----29.87- 90.7 88.9 73.6- 5.9-
2026-08-31 05:36 pm E 15.0 20.0----29.87- 90.0 89.1 73.0- 5.9-
2026-08-31 05:30 pmESE 14.0 20.0----29.87- 90.5 88.9 73.0- 5.9-
2026-08-31 05:24 pmESE 14.0 19.0----29.87- 90.9 88.9 73.4- 5.9-
2026-08-31 05:18 pm E 11.1 19.0----29.87- 91.9 88.9 73.9- 5.9-
2026-08-31 05:12 pmESE 15.0 19.0----29.87- 91.0 88.9 73.4- 5.9-
2026-08-31 05:06 pmESE 15.0 19.0----29.87- 91.0 88.9 72.7- 5.9-
2026-08-31 05:00 pm E 15.0 19.0----29.87-0.06 91.4 88.9 72.9- 5.9-
2026-08-31 04:54 pmESE 15.9 19.0----29.87- 91.4 88.9 73.2- 5.9-
2026-08-31 04:48 pmESE 14.0 17.1----29.87-- 88.9-- 5.9-
2026-08-31 04:42 pm E 14.0 19.0----29.87-- 88.7-- 5.9-
2026-08-31 04:36 pm E 15.9 19.0----29.87-- 88.7-- 5.9-
2026-08-31 04:30 pm E 15.9 19.0----29.87- 91.8 88.9 72.9- 5.9-
2026-08-31 04:24 pmESE 17.1 20.0----29.87- 92.1 88.9 72.1- 5.9-
2026-08-31 04:18 pm E 15.9 19.0----29.88-- 88.9-- 5.9-
2026-08-31 04:12 pmESE 15.0 19.0----29.88-- 88.7-- 5.9-
2026-08-31 04:06 pmESE 11.1 18.1----29.88-- 88.7-- 5.9-
2026-08-31 04:00 pm E 14.0 19.0----29.88-0.06 94.1 88.9 72.1- 5.9-
2026-08-31 03:54 pm E 13.0 19.0----29.88- 93.6 88.9 72.5- 5.9-
2026-08-31 03:48 pm E 14.0 18.1----29.89- 93.4 88.9 71.2- 5.9-
2026-08-31 03:42 pm E 14.0 17.1----29.89- 93.4 88.9 72.3- 5.9-
2026-08-31 03:36 pm E 14.0 17.1----29.89- 93.6 88.9 71.2- 5.9-
2026-08-31 03:30 pm E 14.0 17.1----29.90- 93.4 88.9 71.2- 5.9-
2026-08-31 03:24 pmESE 12.0 21.0----29.90- 95.4 88.7 71.2- 5.9-
2026-08-31 03:18 pm E 14.0 18.1----29.90-- 88.7-- 5.9-
2026-08-31 03:12 pm E 15.0 20.0----29.91-- 88.5-- 5.9-
2026-08-31 03:06 pm E 15.9 18.1----29.91-- 88.5-- 5.9-
2026-08-31 03:00 pm E 14.0 15.9----29.91-0.05 95.4 88.9 70.3- 5.9-
2026-08-31 02:54 pm E 13.0 18.1----29.91- 94.1 88.7 72.1- 5.9-
2026-08-31 02:48 pm E 12.0 15.9----29.91- 94.8 88.9 71.1- 5.9-
2026-08-31 02:42 pm E 12.0 15.0----29.92- 95.5 88.5 70.3- 5.9-
2026-08-31 02:36 pm E 13.0 17.1----29.92- 94.6 88.5 71.8- 5.9-
2026-08-31 02:30 pm E 11.1 15.0----29.92- 93.7 88.5 72.9- 5.9-
2026-08-31 02:24 pm E 12.0 15.9----29.92- 93.9 88.3 73.0- 5.9-
2026-08-31 02:18 pm E 13.0 19.0----29.92-- 88.3-- 5.9-
2026-08-31 02:12 pm E 15.0 19.0----29.93-- 88.5-- 5.9-
2026-08-31 02:06 pm E 14.0 18.1----29.93-- 88.5-- 5.9-
2026-08-31 02:00 pm E 14.0 18.1----29.93-0.03 93.2 88.9 74.3- 5.9-
2026-08-31 01:54 pm E 14.0 18.1----29.93- 92.8 89.1 73.9- 5.9-
2026-08-31 01:48 pm E 14.0 19.0----29.93- 92.7 89.1 74.3- 5.9-
2026-08-31 01:42 pm E 14.0 18.1----29.94- 93.0 88.7 74.8- 5.9-
2026-08-31 01:36 pm E 15.0 18.1----29.94- 93.0 88.5 75.0- 5.9-
2026-08-31 01:30 pm E 14.0 19.0----29.94- 92.7 88.5 75.2- 5.9-
2026-08-31 01:24 pmENE 15.9 18.1----29.94- 92.7 88.7 75.2- 5.9-
2026-08-31 01:18 pm E 15.9 19.0----29.94-- 88.5-- 5.9-
2026-08-31 01:12 pm E 13.0 19.0----29.94-- 88.5-- 5.9-
2026-08-31 01:06 pmENE 17.1 19.0----29.94-- 88.9-- 5.9-
2026-08-31 01:00 pmENE 15.9 21.0----29.94-0.01 92.1 88.5 76.8- 5.9-
2026-08-31 12:54 pmENE 15.9 20.0----29.94- 91.8 88.3 77.0- 5.9-
2026-08-31 12:48 pmENE 15.0 18.1----29.95-- 88.5-- 5.9-
2026-08-31 12:42 pmENE 13.0 18.1----29.95-- 88.3-- 5.9-
2026-08-31 12:36 pmENE 15.0 18.1----29.95-- 88.3-- 5.9-
2026-08-31 12:30 pmENE 14.0 18.1----29.95- 90.1 88.7 77.4- 5.9-
2026-08-31 12:24 pmENE 14.0 17.1----29.95- 90.0 88.5 77.5- 5.9-
2026-08-31 12:18 pmENE 14.0 17.1----29.95-- 88.5-- 5.9-
2026-08-31 12:12 pmENE 15.0 18.1----29.96-- 88.5-- 5.9-
2026-08-31 12:06 pmENE 12.0 17.1----29.96-- 88.5-- 5.9-
2026-08-31 12:00 pmENE 14.0 17.1----29.96+0.02 90.1 88.3 77.4- 5.9-
2026-08-31 11:54 amENE 12.0 17.1----29.96- 90.7 88.2 77.7- 5.9-
2026-08-31 11:48 amENE 13.0 17.1----29.96- 90.1 88.0 78.3- 5.9-
2026-08-31 11:42 amENE 14.0 15.9----29.96- 88.7 88.2 77.7- 5.9-
2026-08-31 11:36 amENE 12.0 14.0----29.96- 90.0 88.3 78.1- 5.9-
2026-08-31 11:30 amENE 12.0 14.0----29.96- 90.1 88.2 79.0- 5.9-
2026-08-31 11:24 amENE 13.0 15.0----29.96- 87.6 88.0 78.3- 5.9-
2026-08-31 11:18 amENE 12.0 18.1----29.96-- 88.2-- 5.9-
2026-08-31 11:12 am E 7.0 12.0----29.96-- 88.0-- 5.9-
2026-08-31 11:06 amESE 6.0 8.9----29.96-- 88.0-- 5.9-
2026-08-31 11:00 am SE 7.0 9.9----29.96+0.03 90.1 88.0 73.2- 5.9-
2026-08-31 10:54 am S 4.1 7.0----29.96- 90.3 88.0 74.3- 5.9-
2026-08-31 10:48 am SE 7.0 11.1----29.96- 89.6 88.0 74.1- 5.9-
2026-08-31 10:42 am SE 6.0 8.9----29.96- 90.5 88.0 73.9- 5.9-
2026-08-31 10:36 amSSE 8.0 9.9----29.96- 89.4 88.0 74.5- 5.9-
2026-08-31 10:30 am S 5.1 9.9----29.96- 88.5 88.0 74.8- 5.9-
2026-08-31 10:24 am S 6.0 9.9----29.96- 89.2 88.0 75.4- 5.9-
2026-08-31 10:18 am S 5.1 8.9----29.96-- 87.8-- 5.9-
2026-08-31 10:12 amSSE 7.0 12.0----29.96-- 87.8-- 5.9-
2026-08-31 10:06 amSSE 7.0 9.9----29.96-- 87.8-- 5.9-
2026-08-31 10:00 am S 6.0 8.9----29.95+0.04 88.0 88.0 76.5- 5.9-
2026-08-31 09:54 am S 6.0 8.9----29.95- 87.6 87.8 76.3- 5.9-
2026-08-31 09:48 am S 8.9 12.0----29.95- 86.7 87.8 75.7- 5.9-
2026-08-31 09:42 amSSE 7.0 8.9----29.95- 88.0 87.8 76.8- 5.9-
2026-08-31 09:36 am S 5.1 9.9----29.95- 86.7- 76.6- 5.9-
2026-08-31 09:30 amSSE 6.0 11.1----29.95- 86.5- 76.6- 5.9-
2026-08-31 09:24 am S 6.0 8.9----29.95- 86.4- 77.2- 5.9-
2026-08-31 09:18 am SE 6.0 9.9----29.95-- 87.8-- 5.9-
2026-08-31 09:12 am S 5.1 8.9----29.94-- 87.8-- 5.9-
2026-08-31 09:06 am S 7.0 11.1----29.94-- 87.8-- 5.9-
2026-08-31 09:00 amSSE 6.0 9.9----29.94+0.03 85.1 87.8 78.1- 5.9-
2026-08-31 08:54 amSSE 6.0 8.9----29.94- 84.7 87.8 78.3- 5.9-
2026-08-31 08:48 am S 5.1 8.9----29.94-- 88.0-- 5.9-
2026-08-31 08:42 am SE 5.1 8.0----29.94-- 87.8-- 5.9-
2026-08-31 08:36 amSSE 5.1 7.0----29.94-- 87.8-- 5.9-
2026-08-31 08:30 amSSE 5.1 8.0----29.94- 83.8 87.8 80.1- 5.9-
2026-08-31 08:24 am SE 6.0 7.0----29.94- 83.5 88.0 80.2- 5.9-
2026-08-31 08:18 am SE 6.0 7.0----29.93-- 88.0-- 5.9-
2026-08-31 08:12 am SE 5.1 7.0----29.93-- 88.0-- 5.9-
2026-08-31 08:06 am SE 5.1 6.0----29.93-- 88.0-- 5.9-
2026-08-31 08:00 am SE 5.1 8.0----29.93+0.02 81.9 88.0 79.9- 5.9-
2026-08-31 07:54 am SE 6.0 7.0----29.93- 81.7 88.0 79.9- 5.9-
2026-08-31 07:48 am SE 5.1 6.0----29.93-- 88.0-- 5.9-
2026-08-31 07:42 am SE 5.1 6.0----29.92-- 88.0-- 5.9-
2026-08-31 07:36 am SE 5.1 7.0----29.92-- 88.0-- 5.9-
2026-08-31 07:30 amSSE 6.0 7.0----29.92- 81.1 88.0 79.2- 5.9-
2026-08-31 07:24 amSSE 5.1 6.0----29.92- 81.1 88.0 79.2- 5.9-
2026-08-31 07:18 am SE 5.1 6.0----29.92-- 88.0-- 5.9-
2026-08-31 07:12 am SE 5.1 6.0----29.91-- 88.0-- 5.9-
2026-08-31 07:06 amSSE 6.0 8.0----29.91-- 88.0-- 5.9-
2026-08-31 07:00 am S 5.1 7.0----29.91+0.00 81.7 88.0 79.2- 5.9-
2026-08-31 06:54 am S 5.1 7.0----29.91- 81.7 88.0 79.2- 5.9-
2026-08-31 06:48 amSSE 4.1 6.0----29.91-- 88.2-- 5.9-
2026-08-31 06:42 amSSE 5.1 7.0----29.91-- 88.2-- 5.9-
2026-08-31 06:36 amSSE 6.0 7.0----29.91-- 88.0-- 5.9-
2026-08-31 06:30 am SE 4.1 6.0----29.91- 81.1 88.0 78.6- 5.9-
2026-08-31 06:24 am SE 5.1 7.0----29.91- 81.5 88.0 78.8- 5.9-
2026-08-31 06:18 am SE 5.1 7.0----29.91-- 88.0-- 5.9-
2026-08-31 06:12 am SE 5.1 8.9----29.91-- 88.0-- 5.9-
2026-08-31 06:06 amSSE 5.1 7.0----29.91-- 88.0-- 5.9-
2026-08-31 06:00 amSSE 6.0 7.0----29.91-0.01 81.7 88.0 78.4- 5.9-
2026-08-31 05:54 amSSE 5.1 7.0----29.91- 81.9 88.0 78.4- 5.9-
2026-08-31 05:48 am S 2.9 7.0----29.91- 82.0 88.0 78.6- 5.9-
2026-08-31 05:42 amSSE 4.1 8.0----29.90- 82.0 88.0 78.4- 5.9-
2026-08-31 05:36 am S 4.1 7.0----29.90- 82.2 88.0 78.4- 5.9-
2026-08-31 05:30 amSSE 6.0 8.0----29.90- 82.2 88.0 78.4- 5.9-
2026-08-31 05:24 amSSE 6.0 8.9----29.90- 82.0 88.0 78.1- 5.9-
2026-08-31 05:18 amSSE 5.1 8.0----29.91-- 88.0-- 5.9-
2026-08-31 05:12 amSSE 6.0 8.9----29.91-- 88.2-- 5.9-
2026-08-31 05:06 amSSE 6.0 9.9----29.91-- 88.2-- 5.9-
2026-08-31 05:00 amSSE 6.0 8.9----29.91-0.02 82.6 88.2 78.1- 5.9-
2026-08-31 04:54 amSSE 5.1 8.0----29.91- 82.8 88.2 78.1- 5.9-
2026-08-31 04:48 amSSE 5.1 8.0----29.91- 82.9 88.2 78.3- 5.9-
2026-08-31 04:42 amSSE 6.0 8.9----29.91- 82.8 88.2 77.9- 5.9-
2026-08-31 04:36 am SE 6.0 8.9----29.91- 82.6 88.2 77.7- 5.9-
2026-08-31 04:30 amSSE 6.0 8.9----29.91- 82.8 88.3 77.7- 5.9-
2026-08-31 04:24 amSSE 7.0 8.9----29.91- 82.8 88.3 77.7- 5.9-
2026-08-31 04:18 amSSE 7.0 9.9----29.91-- 88.3-- 5.9-
2026-08-31 04:12 amSSE 5.1 7.0----29.91-- 88.3-- 5.9-
2026-08-31 04:06 amSSE 6.0 8.0----29.91-- 88.3-- 5.9-
2026-08-31 04:00 am S 5.1 8.0----29.91-0.01 83.1 88.3 77.5- 5.9-
2026-08-31 03:54 amSSE 6.0 9.9----29.91- 83.3 88.3 77.7- 5.9-
2026-08-31 03:48 amSSE 6.0 11.1----29.91- 83.3 88.3 77.5- 5.9-
2026-08-31 03:42 amSSE 7.0 9.9----29.92- 83.3 88.3 77.5- 5.9-
2026-08-31 03:36 amSSE 6.0 8.9----29.92- 83.5 88.3 77.5- 5.9-
2026-08-31 03:30 amSSE 6.0 11.1----29.92- 83.5 88.3 77.5- 5.9-
2026-08-31 03:24 amSSE 6.0 8.9----29.92- 83.5 88.3 77.5- 5.9-
2026-08-31 03:18 amSSE 7.0 9.9----29.92-- 88.3-- 5.9-
2026-08-31 03:12 amSSE 6.0 9.9----29.92-- 88.3-- 5.9-
2026-08-31 03:06 amSSE 5.1 9.9----29.93-- 88.3-- 5.9-
2026-08-31 03:00 amSSE 7.0 9.9----29.92+0.00 83.5 88.3 77.9- 5.9-
2026-08-31 02:54 amSSE 6.0 8.9----29.92- 83.3 88.3 77.9- 5.9-
2026-08-31 02:48 amSSE 6.0 9.9----29.93- 83.3 88.3 77.9- 5.9-
2026-08-31 02:42 amSSE 7.0 9.9----29.93- 83.5 88.3 77.9- 5.9-
2026-08-31 02:36 amSSE 7.0 9.9----29.93- 83.3 88.3 77.9- 5.9-
2026-08-31 02:30 amSSE 6.0 8.9----29.93- 83.3 88.3 77.9- 5.9-
2026-08-31 02:24 amSSE 6.0 8.9----29.93- 83.5 88.3 77.9- 5.9-
2026-08-31 02:18 amSSE 7.0 9.9----29.93- 83.5 88.3 77.7- 5.9-
2026-08-31 02:12 amSSE 6.0 9.9----29.93- 83.7 88.3 77.9- 5.9-
2026-08-31 02:06 amSSE 8.9 12.0----29.93- 83.8 88.3 77.9- 5.9-
2026-08-31 02:00 amSSE 8.0 12.0----29.93+0.00 83.8 88.3 77.7- 5.9-
2026-08-31 01:54 amSSE 7.0 9.9----29.93- 84.0 88.3 77.9- 5.9-
2026-08-31 01:48 amSSE 7.0 8.9----29.93- 84.0 88.3 78.1- 5.9-
2026-08-31 01:42 amSSE 7.0 11.1----29.93- 83.8 88.3 77.9- 5.9-
2026-08-31 01:36 amSSE 7.0 11.1----29.93- 83.8 88.3 78.1- 5.9-
2026-08-31 01:30 amSSE 9.9 12.0----29.93-- 88.3-- 5.9-
2026-08-31 01:24 amSSE 7.0 11.1----29.93-- 88.3-- 5.9-
2026-08-31 01:18 am--------- 84.2- 77.9- 5.9-
2026-08-31 01:12 am--------- 84.2- 77.7- 5.9-
2026-08-31 01:06 am--------- 84.4- 77.9- 5.9-
2026-08-31 01:00 amSSE 6.0 12.0----29.93+0.02 84.4 88.3 77.7- 5.9-
2026-08-31 12:54 amSSE 6.0 11.1----29.93- 84.4 88.3 77.7- 5.9-
2026-08-31 12:48 amSSE 6.0 11.1----29.93- 84.4 88.3 77.5- 5.9-
2026-08-31 12:42 amSSE 8.0 12.0----29.93- 84.6 88.3 77.7- 5.9-
2026-08-31 12:36 am SE 8.9 12.0----29.93- 84.6 88.3 77.7- 5.9-
2026-08-31 12:30 am SE 8.9 12.0----29.93- 84.6 88.3 77.5- 5.9-
2026-08-31 12:24 am SE 9.9 13.0----29.93- 84.6 88.3 77.5- 5.9-
2026-08-31 12:18 am SE 6.0 9.9----29.93-- 88.3-- 5.9-
2026-08-31 12:12 am SE 6.0 9.9----29.93-- 88.3-- 5.9-
2026-08-31 12:06 am SE 7.0 9.9----29.93-- 88.3-- 5.9-
2026-08-31 12:00 am SE 6.0 11.1----29.93+0.04 84.4 88.3 77.4- 5.9-
2026-08-30 11:54 pm SE 7.0 11.1----29.93- 84.6 88.3 77.4- 5.9-
2026-08-30 11:48 pm SE 8.9 11.1----29.93- 84.7 88.3 77.4- 5.9-
2026-08-30 11:42 pm SE 7.0 11.1----29.93- 84.6 88.3 77.2- 5.9-
2026-08-30 11:36 pm SE 7.0 12.0----29.93- 84.7 88.3 77.2- 5.9-
2026-08-30 11:30 pm SE 7.0 11.1----29.93- 84.7 88.3 77.0- 5.9-
2026-08-30 11:24 pm SE 7.0 11.1----29.93- 84.7 88.3 76.8- 5.9-
2026-08-30 11:18 pm SE 8.9 12.0----29.93- 84.9 88.3 76.6- 5.9-
2026-08-30 11:12 pm SE 8.9 13.0----29.93- 85.1 88.3 76.6- 5.9-
2026-08-30 11:06 pm SE 8.9 13.0----29.93- 85.1 88.5 76.6- 5.9-
2026-08-30 11:00 pm SE 9.9 13.0----29.93+0.05 85.1 88.5 76.5- 5.9-
2026-08-30 10:54 pm SE 8.9 14.0----29.93- 85.3 88.5 76.6- 5.9-
2026-08-30 10:48 pm SE 8.9 12.0----29.92- 85.1 88.5 76.6- 5.9-
2026-08-30 10:42 pm SE 8.9 15.9----29.92- 85.1 88.5 76.6- 5.9-
2026-08-30 10:36 pm SE 9.9 14.0----29.91- 85.1 88.5 76.6- 5.9-
2026-08-30 10:30 pm SE 9.9 15.0----29.91- 85.1 88.5 76.6- 5.9-
2026-08-30 10:24 pm SE 12.0 15.9----29.91- 85.3 88.5 76.6- 5.9-
2026-08-30 10:18 pm SE 12.0 13.0----29.91- 85.3 88.5 76.8- 5.9-
2026-08-30 10:12 pm SE 11.1 15.0----29.91- 85.1 88.3 76.8- 5.9-
2026-08-30 10:06 pmESE 13.0 17.1----29.91- 85.3 88.3 77.0- 5.9-
2026-08-30 10:00 pm SE 11.1 14.0----29.91+0.05 85.1 88.3 77.2- 5.9-
2026-08-30 09:54 pm SE 11.1 15.9----29.91- 85.3 88.3 77.2- 5.9-
2026-08-30 09:48 pm SE 11.1 15.9----29.90- 85.3 88.3 76.8- 5.9-
2026-08-30 09:42 pm SE 14.0 15.9----29.90- 85.5 88.3 76.8- 5.9-
2026-08-30 09:36 pm SE 12.0 15.0----29.90- 85.5 88.3 77.0- 5.9-
2026-08-30 09:30 pmESE 12.0 15.9----29.90- 85.5 88.3 76.8- 5.9-
2026-08-30 09:24 pm SE 12.0 15.9----29.90- 85.5 88.3 76.6- 5.9-
2026-08-30 09:18 pmESE 14.0 18.1----29.89-- 88.3-- 5.9-
2026-08-30 09:12 pmESE 13.0 19.0----29.89-- 88.3-- 5.9-
2026-08-30 09:06 pm SE 12.0 15.9----29.89-- 88.3-- 5.9-
2026-08-30 09:00 pmESE 15.9 20.0----29.89+0.03 85.5 88.3 76.5- 5.9-
2026-08-30 08:54 pmESE 14.0 17.1----29.89- 85.5 88.5 76.6- 5.9-
2026-08-30 08:48 pm SE 15.0 18.1----29.89- 85.5 88.5 77.0- 5.9-
2026-08-30 08:42 pm SE 13.0 17.1----29.88- 85.5 88.5 77.0- 5.9-
2026-08-30 08:36 pm SE 12.0 17.1----29.88- 85.6 88.5 77.0- 5.9-
2026-08-30 08:30 pm SE 13.0 15.9----29.88- 85.6 88.5 76.6- 5.9-
2026-08-30 08:24 pm SE 12.0 18.1----29.88- 85.6 88.5 76.5- 5.9-
2026-08-30 08:18 pm SE 14.0 18.1----29.87- 85.8 88.5 76.3- 5.9-
2026-08-30 08:12 pm SE 12.0 14.0----29.88- 85.8 88.5 76.3- 5.9-
2026-08-30 08:06 pmESE 14.0 18.1----29.88- 85.6 88.5 76.6- 5.9-
2026-08-30 08:00 pm E 15.0 19.0----29.88+0.01 85.6 88.5 76.8- 5.9-
2026-08-30 07:54 pmESE 13.0 19.0----29.87- 85.6 88.5 77.0- 5.9-
2026-08-30 07:48 pm E 12.0 19.0----29.87-- 88.5-- 5.9-
2026-08-30 07:42 pm E 13.0 18.1----29.86-- 88.5-- 5.9-
2026-08-30 07:36 pmESE 14.0 18.1----29.86-- 88.5-- 5.9-
2026-08-30 07:30 pmESE 13.0 17.1----29.86- 86.2 88.5 76.3- 5.9-
2026-08-30 07:24 pmESE 13.0 18.1----29.86- 86.4 88.5 76.5- 5.9-
2026-08-30 07:18 pm E 14.0 18.1----29.86-- 88.5-- 5.9-
2026-08-30 07:12 pmESE 12.0 15.9----29.86-- 88.5-- 5.9-
2026-08-30 07:06 pm E 13.0 19.0----29.86-- 88.5-- 5.9-
2026-08-30 07:00 pmESE 15.0 19.0----29.86-0.02- 88.5-- 5.9-
2026-08-30 06:54 pm E 12.0 19.0----29.86-- 88.5-- 5.9-
2026-08-30 06:48 pm E 15.0 19.0----29.86-- 88.7-- 5.9-
2026-08-30 06:42 pmESE 15.0 19.0----29.86-- 88.5-- 5.9-
2026-08-30 06:36 pm E 14.0 19.0----29.86-- 88.5-- 5.9-
2026-08-30 06:30 pm E 13.0 18.1----29.86- 88.3 88.5 75.2- 5.9-
2026-08-30 06:24 pm E 14.0 18.1----29.86- 88.7 88.5 75.0- 5.9-
2026-08-30 06:18 pmESE 14.0 18.1----29.86-- 88.5-- 5.9-
2026-08-30 06:12 pm E 13.0 17.1----29.86-- 88.5-- 5.9-
2026-08-30 06:06 pm E 15.0 18.1----29.86-- 88.5-- 5.9-
2026-08-30 06:00 pm E 13.0 19.0----29.86-0.05 90.1 88.5 74.5- 5.9-
2026-08-30 05:54 pm E 14.0 18.1----29.86- 89.6 88.5 74.1- 5.9-